Time;durP1;ratioP1;P1;durP2;ratioP2;P2;SDS_P1;SDS_P2;PMS_P1;PMS_P2;Temp;Humidity;BMP_temperature;BMP_pressure;BME280_temperature;BME280_humidity;BME280_pressure;Samples;Min_cycle;Max_cycle;Signal;HPM_P1;HPM_P2
2021/09/16 00:01:41;;;;;;;10.77;7.23;;;;;;;14.59;84.85;99347.41;1737718;80;21475;-70
2021/09/16 00:04:07;;;;;;;7.40;6.63;;;;;;;14.58;84.90;99341.80;1739436;81;20986;-70
2021/09/16 00:06:34;;;;;;;9.57;7.23;;;;;;;14.57;84.87;99337.50;1734440;81;22037;-70
2021/09/16 00:09:00;;;;;;;7.15;6.45;;;;;;;14.55;84.94;99330.55;1736152;81;21078;-69
2021/09/16 00:11:27;;;;;;;8.60;6.83;;;;;;;14.54;84.98;99334.12;1736775;80;20927;-70
2021/09/16 00:13:54;;;;;;;8.38;7.28;;;;;;;14.35;84.92;99310.06;1734589;81;20949;-70
2021/09/16 00:16:21;;;;;;;7.93;7.13;;;;;;;14.49;84.91;99334.89;1732970;81;21484;-69
2021/09/16 00:18:47;;;;;;;8.20;7.12;;;;;;;14.50;84.99;99343.13;1735826;81;21091;-69
2021/09/16 00:21:14;;;;;;;8.67;7.20;;;;;;;14.49;84.97;99336.20;1736806;81;20896;-70
2021/09/16 00:23:40;;;;;;;10.28;6.67;;;;;;;14.51;84.98;99343.98;1725535;81;21471;-69
2021/09/16 00:26:07;;;;;;;9.70;7.63;;;;;;;14.50;84.95;99335.24;1736309;81;21572;-70
2021/09/16 00:28:34;;;;;;;15.35;8.05;;;;;;;14.49;85.01;99330.95;1733378;81;21437;-70
2021/09/16 00:31:00;;;;;;;12.53;7.40;;;;;;;14.46;85.15;99331.16;1736070;81;21017;-70
2021/09/16 00:33:27;;;;;;;14.00;7.63;;;;;;;14.41;85.17;99325.38;1734784;81;21213;-70
2021/09/16 00:35:53;;;;;;;11.50;7.47;;;;;;;14.37;85.21;99331.81;1733633;81;20983;-70
2021/09/16 00:38:20;;;;;;;12.37;7.53;;;;;;;14.30;85.23;99328.75;1733402;81;21522;-69
2021/09/16 00:40:47;;;;;;;11.12;8.25;;;;;;;14.24;85.53;99328.34;1732870;81;21500;-69
2021/09/16 00:43:14;;;;;;;10.05;7.97;;;;;;;14.20;85.56;99325.54;1730289;81;21795;-70
2021/09/16 00:45:40;;;;;;;9.43;7.80;;;;;;;14.15;85.71;99327.66;1733898;81;20982;-69
2021/09/16 00:48:07;;;;;;;10.50;7.90;;;;;;;14.09;85.68;99319.26;1735453;81;21501;-70
2021/09/16 00:50:36;;;;;;;9.30;8.37;;;;;;;14.06;86.02;99314.70;1738909;81;21624;-70
2021/09/16 00:53:03;;;;;;;11.18;7.87;;;;;;;14.03;86.09;99317.05;1734211;81;20977;-70
2021/09/16 00:55:31;;;;;;;9.20;8.00;;;;;;;13.99;86.00;99305.06;1730997;81;21058;-69
2021/09/16 00:58:02;;;;;;;8.30;7.58;;;;;;;13.96;86.28;99303.97;1739444;80;21653;-69
2021/09/16 01:00:29;;;;;;;10.32;7.92;;;;;;;13.91;86.32;99291.63;1734812;81;21007;-69
2021/09/16 01:02:55;;;;;;;9.87;8.33;;;;;;;13.89;86.38;99300.06;1737085;81;21004;-69
2021/09/16 01:05:22;;;;;;;9.17;8.00;;;;;;;13.87;86.68;99296.72;1733954;81;21016;-69
2021/09/16 01:07:49;;;;;;;12.28;8.55;;;;;;;13.83;86.70;99288.20;1743442;81;21457;-69
2021/09/16 01:10:16;;;;;;;10.80;8.27;;;;;;;13.82;86.63;99285.69;1734727;81;20959;-69
2021/09/16 01:12:46;;;;;;;;;;;;;;;13.80;86.95;99284.95;1734880;81;21003;-69
2021/09/16 01:15:11;;;;;;;10.32;9.23;;;;;;;13.78;86.91;99281.58;1728972;81;20144;-69
2021/09/16 01:17:38;;;;;;;9.80;8.17;;;;;;;13.76;87.18;99278.23;1712868;81;21059;-69
2021/09/16 01:20:07;;;;;;;9.78;8.75;;;;;;;13.64;87.35;99256.30;1711900;81;22046;-69
2021/09/16 01:22:35;;;;;;;9.90;8.65;;;;;;;13.72;87.46;99270.19;1734528;81;20992;-69
2021/09/16 01:25:04;;;;;;;9.65;8.65;;;;;;;13.70;87.65;99272.10;1735503;81;21001;-69
2021/09/16 01:27:31;;;;;;;9.28;8.33;;;;;;;13.68;87.65;99267.42;1698503;82;20961;-69
2021/09/16 01:29:57;;;;;;;9.53;8.63;;;;;;;13.65;87.84;99262.73;1746525;81;21609;-69
2021/09/16 01:32:24;;;;;;;11.73;8.90;;;;;;;13.64;88.00;99263.69;1734904;81;21557;-69
2021/09/16 01:34:51;;;;;;;9.30;8.40;;;;;;;13.63;88.16;99262.47;1727709;81;21013;-69
2021/09/16 01:37:18;;;;;;;10.25;8.50;;;;;;;13.63;88.09;99260.68;1733087;81;21087;-69
2021/09/16 01:39:45;;;;;;;9.55;8.30;;;;;;;13.61;88.21;99258.66;1734464;80;20974;-69
2021/09/16 01:42:11;;;;;;;9.73;8.73;;;;;;;13.62;88.20;99256.86;1733037;81;20944;-69
2021/09/16 01:44:38;;;;;;;9.85;8.45;;;;;;;13.63;88.11;99252.81;1735928;81;21427;-69
2021/09/16 01:47:04;;;;;;;9.67;8.77;;;;;;;13.63;88.30;99252.81;1731826;80;20942;-69
2021/09/16 01:49:32;;;;;;;9.55;8.65;;;;;;;13.63;88.36;99247.56;1739715;81;20935;-69
2021/09/16 01:51:59;;;;;;;11.53;8.73;;;;;;;13.62;88.37;99245.89;1729966;81;21548;-70
2021/09/16 01:54:25;;;;;;;10.82;9.20;;;;;;;13.62;88.47;99235.41;1736309;81;21044;-69
2021/09/16 01:56:52;;;;;;;10.80;9.35;;;;;;;13.63;88.61;99234.45;1730593;81;21145;-69
2021/09/16 01:59:19;;;;;;;15.13;9.08;;;;;;;13.63;88.73;99237.07;1733185;81;20965;-69
2021/09/16 02:01:45;;;;;;;11.97;9.33;;;;;;;13.64;88.85;99227.44;1740510;81;21041;-70
2021/09/16 02:04:12;;;;;;;10.63;8.67;;;;;;;13.64;88.87;99223.03;1733315;81;21715;-69
2021/09/16 02:06:39;;;;;;;10.53;9.27;;;;;;;13.63;89.02;99224.43;1734052;81;21638;-69
2021/09/16 02:09:06;;;;;;;11.78;9.10;;;;;;;13.61;89.29;99218.00;1736179;81;21505;-69
2021/09/16 02:11:32;;;;;;;10.10;9.10;;;;;;;13.59;89.25;99219.88;1733305;81;20987;-70
2021/09/16 02:13:59;;;;;;;10.98;9.55;;;;;;;13.58;89.66;99220.83;1738789;81;20983;-69
2021/09/16 02:16:25;;;;;;;9.70;8.70;;;;;;;13.58;89.43;99216.89;1735911;81;20962;-69
2021/09/16 02:18:52;;;;;;;10.33;8.97;;;;;;;13.57;89.36;99220.92;1732146;81;21167;-70
2021/09/16 02:21:19;;;;;;;12.73;9.60;;;;;;;13.57;89.46;99221.75;1734628;81;20952;-69
2021/09/16 02:23:45;;;;;;;10.90;9.53;;;;;;;13.56;89.42;99217.46;1735282;81;21163;-69
2021/09/16 02:26:12;;;;;;;10.78;9.50;;;;;;;13.55;89.52;99222.31;1730903;81;21566;-69
2021/09/16 02:28:38;;;;;;;10.40;9.37;;;;;;;13.56;89.66;99224.02;1733331;81;21036;-69
2021/09/16 02:31:05;;;;;;;10.10;8.97;;;;;;;13.56;89.62;99230.58;1741281;81;20954;-69
2021/09/16 02:33:33;;;;;;;9.88;8.80;;;;;;;13.56;89.66;99225.33;1733229;81;21099;-69
2021/09/16 02:36:01;;;;;;;11.78;9.20;;;;;;;13.58;89.89;99215.58;1735234;81;21001;-69
2021/09/16 02:38:28;;;;;;;10.58;9.58;;;;;;;13.59;89.69;99212.00;1740463;80;20997;-69
2021/09/16 02:40:54;;;;;;;10.38;9.38;;;;;;;13.59;89.79;99202.83;1729482;81;20939;-69
2021/09/16 02:43:21;;;;;;;12.50;8.93;;;;;;;13.60;90.12;99197.94;1736800;81;21063;-69
2021/09/16 02:45:47;;;;;;;12.40;8.83;;;;;;;13.61;89.83;99197.01;1741156;80;21483;-69
2021/09/16 02:48:14;;;;;;;10.23;9.10;;;;;;;13.63;89.88;99192.48;1729709;81;20922;-69
2021/09/16 02:50:41;;;;;;;9.68;8.78;;;;;;;13.64;89.89;99192.03;1733109;80;21193;-69
2021/09/16 02:53:08;;;;;;;10.20;8.58;;;;;;;13.64;90.01;99188.93;1736965;81;21020;-70
2021/09/16 02:55:34;;;;;;;11.83;9.47;;;;;;;13.63;89.96;99184.61;1734098;81;20923;-69
2021/09/16 02:58:01;;;;;;;10.58;9.50;;;;;;;13.63;89.99;99189.02;1731467;81;21510;-69
2021/09/16 03:00:28;;;;;;;11.35;10.10;;;;;;;13.61;90.13;99186.52;1737078;81;21081;-69
2021/09/16 03:02:54;;;;;;;11.12;9.60;;;;;;;13.61;90.23;99186.52;1735711;81;20987;-69
2021/09/16 03:05:22;;;;;;;10.17;9.23;;;;;;;13.60;90.22;99180.88;1738173;81;20946;-69
2021/09/16 03:07:48;;;;;;;10.75;9.73;;;;;;;13.60;90.22;99180.88;1733595;81;25319;-70
2021/09/16 03:10:15;;;;;;;10.10;9.10;;;;;;;13.60;90.20;99173.02;1743133;81;21943;-70
2021/09/16 03:12:42;;;;;;;11.17;9.60;;;;;;;13.59;90.30;99176.59;1734062;80;20986;-69
2021/09/16 03:15:11;;;;;;;9.85;8.88;;;;;;;13.57;90.40;99174.54;1735924;81;28172;-69
2021/09/16 03:17:38;;;;;;;10.53;9.43;;;;;;;13.58;90.55;99181.48;1737255;80;20912;-69
2021/09/16 03:20:06;;;;;;;14.10;10.03;;;;;;;13.58;90.44;99178.86;1735575;81;20904;-69
2021/09/16 03:22:33;;;;;;;11.95;10.03;;;;;;;13.60;90.54;99178.27;1739206;81;21087;-70
2021/09/16 03:24:59;;;;;;;11.60;9.35;;;;;;;13.60;90.54;99178.27;1734309;80;21616;-69
2021/09/16 03:27:26;;;;;;;10.93;9.83;;;;;;;13.61;90.50;99176.02;1738956;81;21011;-71
2021/09/16 03:29:53;;;;;;;11.53;10.38;;;;;;;13.63;90.51;99174.11;1739523;80;20889;-69
2021/09/16 03:32:20;;;;;;;12.53;10.10;;;;;;;13.65;90.51;99172.23;1734879;80;21264;-69
2021/09/16 03:34:46;;;;;;;10.63;9.43;;;;;;;13.65;90.48;99172.23;1736230;81;22289;-69
2021/09/16 03:37:13;;;;;;;11.27;10.20;;;;;;;13.66;90.53;99171.75;1734938;81;21568;-69
2021/09/16 03:39:40;;;;;;;13.30;10.20;;;;;;;13.65;90.50;99173.55;1744897;80;21367;-68
2021/09/16 03:42:07;;;;;;;19.77;9.50;;;;;;;13.64;90.47;99173.19;1738484;81;21493;-68
2021/09/16 03:44:36;;;;;;;16.05;10.10;;;;;;;13.64;90.43;99173.19;1735397;81;20986;-70
2021/09/16 03:47:06;;;;;;;10.60;9.50;;;;;;;13.63;90.72;99167.55;1739416;80;22123;-69
2021/09/16 03:49:38;;;;;;;10.63;9.40;;;;;;;13.63;90.72;99167.55;1741057;81;20967;-70
2021/09/16 03:52:07;;;;;;;12.07;9.75;;;;;;;13.61;90.68;99156.34;1740169;81;20981;-70
2021/09/16 03:54:35;;;;;;;11.60;10.40;;;;;;;13.61;90.68;99156.34;1733718;81;20923;-70
2021/09/16 03:57:03;;;;;;;11.65;10.45;;;;;;;13.59;90.76;99156.92;1736839;80;21006;-70
2021/09/16 03:59:31;;;;;;;10.55;9.55;;;;;;;13.58;90.74;99155.25;1731380;80;21513;-70
2021/09/16 04:01:58;;;;;;;13.05;10.53;;;;;;;13.50;91.09;99133.95;1739562;81;21077;-70
2021/09/16 04:04:25;;;;;;;12.63;11.33;;;;;;;13.59;90.88;99152.98;1736024;81;21255;-69
2021/09/16 04:06:52;;;;;;;12.15;10.95;;;;;;;13.57;90.95;99150.93;1731838;81;21528;-70
2021/09/16 04:09:19;;;;;;;12.60;10.53;;;;;;;13.59;91.00;99146.43;1739423;81;21073;-70
2021/09/16 04:11:45;;;;;;;12.53;11.08;;;;;;;13.59;91.00;99146.43;1735347;81;21907;-70
2021/09/16 04:14:12;;;;;;;12.65;10.95;;;;;;;13.61;90.89;99147.17;1735317;81;21597;-69
2021/09/16 04:16:39;;;;;;;12.90;11.53;;;;;;;13.60;91.13;99145.47;1734722;81;21040;-70
2021/09/16 04:19:06;;;;;;;12.70;11.40;;;;;;;13.57;91.25;99139.13;1744515;81;21038;-69
2021/09/16 04:21:33;;;;;;;12.53;11.17;;;;;;;13.58;91.29;99137.34;1738504;81;20971;-70
2021/09/16 04:23:59;;;;;;;;;;;;;;;13.56;91.57;99123.03;1742418;81;22327;-70
2021/09/16 04:26:26;;;;;;;13.08;11.73;;;;;;;13.55;91.62;99131.00;1743760;80;20709;-69
2021/09/16 04:28:52;;;;;;;14.10;12.70;;;;;;;13.53;91.59;99128.50;1737476;80;21502;-69
2021/09/16 04:31:19;;;;;;;14.20;12.80;;;;;;;13.54;91.87;99118.36;1746335;81;21026;-69
2021/09/16 04:33:46;;;;;;;13.80;12.43;;;;;;;13.53;91.93;99123.25;1743096;80;21607;-69
2021/09/16 04:36:12;;;;;;;15.07;13.47;;;;;;;13.47;92.09;99102.70;1738297;80;21078;-69
2021/09/16 04:38:39;;;;;;;13.83;12.47;;;;;;;13.52;92.19;99116.30;1738693;81;20923;-70
2021/09/16 04:41:05;;;;;;;15.33;13.83;;;;;;;13.53;92.28;99107.52;1737754;81;21510;-70
2021/09/16 04:43:32;;;;;;;15.60;12.43;;;;;;;13.54;92.29;99114.42;1736036;81;20966;-69
2021/09/16 04:45:59;;;;;;;16.27;13.38;;;;;;;13.56;92.43;99108.61;1743065;81;21046;-70
2021/09/16 04:48:25;;;;;;;15.10;13.23;;;;;;;13.59;92.70;99115.43;1738276;81;21723;-70
2021/09/16 04:50:52;;;;;;;15.23;13.73;;;;;;;13.59;92.39;99117.58;1734511;81;20982;-70
2021/09/16 04:53:19;;;;;;;15.03;13.43;;;;;;;13.61;92.56;99115.69;1739786;81;20983;-69
2021/09/16 04:55:45;;;;;;;16.25;14.47;;;;;;;13.63;92.64;99115.09;1731833;81;21553;-69
2021/09/16 04:58:12;;;;;;;15.70;14.00;;;;;;;13.66;92.67;99116.19;1738813;81;21008;-70
2021/09/16 05:00:39;;;;;;;16.63;13.70;;;;;;;13.70;92.52;99118.63;1742641;81;21089;-70
2021/09/16 05:03:05;;;;;;;14.27;12.97;;;;;;;13.71;92.41;99115.05;1740376;81;20957;-70
2021/09/16 05:05:33;;;;;;;14.47;12.83;;;;;;;13.73;92.41;99118.41;1740201;81;21129;-70
2021/09/16 05:08:00;;;;;;;14.60;13.18;;;;;;;13.74;92.36;99120.08;1734696;81;21562;-70
2021/09/16 05:10:27;;;;;;;16.25;13.28;;;;;;;13.76;92.38;99118.19;1730308;81;21038;-70
2021/09/16 05:12:53;;;;;;;17.47;13.40;;;;;;;13.79;92.38;99121.91;1725150;82;21895;-70
2021/09/16 05:15:20;;;;;;;18.03;13.20;;;;;;;13.80;92.42;99109.14;1730796;82;21018;-70
2021/09/16 05:17:47;;;;;;;14.57;13.17;;;;;;;13.83;92.52;99114.17;1728579;82;21017;-70
2021/09/16 05:20:13;;;;;;;14.00;12.70;;;;;;;13.85;92.66;99110.97;1728682;82;21026;-70
2021/09/16 05:22:40;;;;;;;14.53;12.95;;;;;;;13.87;92.70;99113.03;1731627;82;21652;-67
2021/09/16 05:25:11;;;;;;;14.57;13.17;;;;;;;13.90;92.82;99106.25;1734866;80;21514;-67
2021/09/16 05:27:38;;;;;;;14.83;13.32;;;;;;;13.92;92.88;99109.61;1728955;81;21000;-67
2021/09/16 05:30:14;;;;;;;15.45;13.93;;;;;;;13.93;92.80;99109.96;1731082;82;20982;-66
2021/09/16 05:32:38;;;;;;;13.20;11.83;;;;;;;13.95;92.85;99102.83;1730359;82;21071;-67
2021/09/16 05:35:07;;;;;;;14.60;13.15;;;;;;;13.89;92.94;99086.18;1727870;81;20985;-66
2021/09/16 05:37:36;;;;;;;14.45;13.05;;;;;;;13.99;92.90;99104.27;1731136;82;21758;-66
2021/09/16 05:40:04;;;;;;;15.93;12.75;;;;;;;14.04;93.22;99094.29;1728364;82;20946;-67
2021/09/16 05:42:31;;;;;;;15.03;13.45;;;;;;;14.04;93.22;99094.29;1728218;81;21047;-66
2021/09/16 05:44:58;;;;;;;13.48;12.28;;;;;;;13.87;93.26;99059.23;1729556;82;21526;-66
2021/09/16 05:47:25;;;;;;;14.98;13.55;;;;;;;14.03;93.32;99086.06;1725609;82;21074;-66
2021/09/16 05:49:52;;;;;;;14.98;13.45;;;;;;;14.05;93.47;99081.52;1728877;82;21553;-67
2021/09/16 05:52:19;;;;;;;16.17;14.23;;;;;;;14.07;93.34;99088.81;1726762;81;20955;-66
2021/09/16 05:54:45;;;;;;;18.55;14.28;;;;;;;14.08;93.31;99081.30;1732175;81;24398;-67
2021/09/16 05:57:12;;;;;;;14.63;13.10;;;;;;;14.12;93.23;99079.79;1727808;82;21552;-67
2021/09/16 05:59:39;;;;;;;15.47;13.53;;;;;;;14.13;93.20;99079.66;1730174;82;20979;-67
2021/09/16 06:02:05;;;;;;;15.57;13.97;;;;;;;14.16;93.19;99083.86;1731170;81;21085;-67
2021/09/16 06:04:32;;;;;;;15.93;14.25;;;;;;;14.18;93.19;99081.97;1729070;81;21061;-66
2021/09/16 06:07:03;;;;;;;17.43;13.90;;;;;;;14.19;93.19;99073.13;1729357;81;21614;-65
2021/09/16 06:09:27;;;;;;;15.40;13.75;;;;;;;14.19;93.09;99081.01;1735045;81;21532;-66
2021/09/16 06:11:54;;;;;;;16.73;12.80;;;;;;;14.19;93.18;99082.31;1734131;80;20995;-66
2021/09/16 06:14:21;;;;;;;14.70;13.20;;;;;;;14.21;93.06;99076.49;1733447;81;21528;-66
2021/09/16 06:16:50;;;;;;;;;;;;;;;14.20;93.05;99066.92;1738115;80;21015;-66
2021/09/16 06:19:17;;;;;;;15.70;13.03;;;;;;;14.19;93.08;99061.31;1743212;81;20773;-67
2021/09/16 06:21:44;;;;;;;15.08;12.70;;;;;;;14.15;93.06;99063.81;1736409;80;21532;-67
2021/09/16 06:24:11;;;;;;;14.95;13.30;;;;;;;14.14;93.05;99069.99;1710354;81;21118;-67
2021/09/16 06:26:38;;;;;;;15.08;13.58;;;;;;;14.13;93.28;99063.08;1739891;81;23252;-66
2021/09/16 06:29:07;;;;;;;15.70;13.72;;;;;;;14.09;93.06;99062.47;1739895;80;21010;-66
2021/09/16 06:31:34;;;;;;;16.48;13.78;;;;;;;14.05;93.20;99060.52;1704840;82;21511;-67
2021/09/16 06:34:00;;;;;;;16.30;13.98;;;;;;;14.06;93.21;99055.66;1742373;81;21006;-67
2021/09/16 06:36:27;;;;;;;15.23;13.72;;;;;;;14.04;93.33;99036.55;1737509;80;21646;-68
2021/09/16 06:38:54;;;;;;;16.10;14.43;;;;;;;14.02;93.54;99033.18;1743291;80;21182;-66
2021/09/16 06:41:21;;;;;;;16.40;14.80;;;;;;;13.99;93.63;99041.28;1742296;80;21272;-66
2021/09/16 06:43:48;;;;;;;15.65;13.98;;;;;;;13.99;93.58;99036.03;1741974;80;21043;-69
2021/09/16 06:46:19;;;;;;;;;;;;;;;14.02;93.79;99039.74;1740893;80;21702;-67
2021/09/16 06:48:46;;;;;;;16.67;15.08;;;;;;;14.03;93.69;99049.77;1737659;80;20154;-69
2021/09/16 06:51:15;;;;;;;16.40;14.80;;;;;;;14.04;93.70;99044.42;1741626;80;22064;-68
2021/09/16 06:53:42;;;;;;;15.90;14.33;;;;;;;14.06;93.64;99055.66;1737996;80;20900;-68
2021/09/16 06:56:10;;;;;;;16.40;14.70;;;;;;;14.08;93.63;99055.52;1742026;81;20983;-68
2021/09/16 06:58:38;;;;;;;15.30;13.90;;;;;;;13.97;93.48;99030.05;1748164;81;21871;-67
2021/09/16 07:01:06;;;;;;;15.53;14.00;;;;;;;14.10;93.50;99049.22;1743535;80;21866;-68
2021/09/16 07:03:34;;;;;;;15.50;13.58;;;;;;;14.03;93.47;99031.39;1742982;80;21595;-67
2021/09/16 07:06:01;;;;;;;15.75;14.15;;;;;;;14.16;93.43;99049.73;1739280;80;28272;-66
2021/09/16 07:08:29;;;;;;;15.70;14.18;;;;;;;14.19;93.47;99052.12;1720052;81;21206;-67
2021/09/16 07:10:59;;;;;;;18.20;15.65;;;;;;;14.27;93.54;99055.03;1727383;81;21590;-67
2021/09/16 07:13:27;;;;;;;20.20;16.30;;;;;;;14.30;93.43;99062.69;1732679;81;20935;-68
2021/09/16 07:15:54;;;;;;;16.77;14.53;;;;;;;14.36;93.41;99062.23;1744957;80;21880;-66
2021/09/16 07:18:21;;;;;;;16.00;14.33;;;;;;;14.39;93.35;99065.94;1744171;81;20893;-67
2021/09/16 07:20:50;;;;;;;15.53;13.85;;;;;;;14.42;93.26;99067.03;1735534;80;21278;-70
2021/09/16 07:23:17;;;;;;;14.87;13.20;;;;;;;14.43;93.22;99060.84;1739195;80;21684;-68
2021/09/16 07:25:44;;;;;;;16.35;14.58;;;;;;;14.43;93.17;99063.47;1747359;81;20928;-68
2021/09/16 07:28:11;;;;;;;14.15;12.75;;;;;;;14.43;93.20;99060.84;1728913;81;21123;-67
2021/09/16 07:30:39;;;;;;;15.58;14.05;;;;;;;14.43;93.23;99057.38;1740188;80;21058;-69
2021/09/16 07:33:06;;;;;;;15.40;13.95;;;;;;;14.45;93.30;99062.89;1737446;80;20937;-68
2021/09/16 07:35:34;;;;;;;16.12;14.40;;;;;;;14.48;93.31;99070.54;1703652;81;39363;-68
2021/09/16 07:38:01;;;;;;;15.28;13.68;;;;;;;14.50;93.25;99060.73;1741409;81;21741;-68
2021/09/16 07:40:28;;;;;;;17.30;15.35;;;;;;;14.52;93.27;99060.19;1735077;80;20965;-67
2021/09/16 07:42:55;;;;;;;;;;;;;;;14.57;93.25;99065.11;1729706;81;21561;-67
2021/09/16 07:45:23;;;;;;;16.57;14.85;;;;;;;14.62;93.33;99064.75;1739728;81;20278;-67
2021/09/16 07:47:49;;;;;;;;;;;;;;;14.68;93.34;99064.31;1745879;81;20864;-70
2021/09/16 07:50:16;;;;;;;16.35;14.70;;;;;;;14.73;93.30;99067.41;1718887;81;20178;-72
2021/09/16 07:52:43;;;;;;;16.57;14.95;;;;;;;14.76;93.27;99061.95;1744230;81;21483;-71
2021/09/16 07:55:11;;;;;;;15.55;14.05;;;;;;;14.79;93.16;99064.34;1737636;81;20956;-71
2021/09/16 07:57:38;;;;;;;14.90;13.50;;;;;;;14.80;93.14;99058.13;1744019;81;21561;-71
2021/09/16 08:00:06;;;;;;;16.50;14.40;;;;;;;14.81;93.02;99061.59;1735140;80;21046;-72
2021/09/16 08:02:33;;;;;;;15.32;13.62;;;;;;;14.81;93.10;99061.11;1732879;81;21065;-72
2021/09/16 08:05:00;;;;;;;;;;;;;;;14.85;93.15;99073.08;1718594;82;21529;-72
2021/09/16 08:07:28;;;;;;;15.72;14.18;;;;;;;14.87;93.07;99077.75;1737234;81;20156;-72
2021/09/16 08:09:55;;;;;;;17.67;15.80;;;;;;;14.89;93.22;99075.83;1738946;80;21009;-71
2021/09/16 08:12:23;;;;;;;16.82;14.90;;;;;;;14.90;93.07;99077.52;1718381;81;20998;-70
2021/09/16 08:14:50;;;;;;;14.70;13.22;;;;;;;14.89;92.91;99091.59;1740118;81;21024;-73
2021/09/16 08:17:17;;;;;;;14.90;13.48;;;;;;;14.88;93.01;99084.67;1741412;81;21286;-71
2021/09/16 08:19:44;;;;;;;14.47;13.08;;;;;;;14.90;93.03;99086.72;1681176;81;20943;-72
2021/09/16 08:22:11;;;;;;;14.53;12.98;;;;;;;14.93;93.07;99085.17;1735829;80;21000;-72
2021/09/16 08:24:38;;;;;;;15.28;13.78;;;;;;;14.94;93.04;99085.52;1733054;81;21109;-71
2021/09/16 08:27:06;;;;;;;17.87;15.45;;;;;;;14.94;92.96;99077.64;1732077;81;21116;-72
2021/09/16 08:29:33;;;;;;;23.32;19.27;;;;;;;14.95;92.96;99080.61;1733631;80;21140;-71
2021/09/16 08:32:00;;;;;;;17.25;15.50;;;;;;;14.98;93.11;99072.52;1741785;80;20990;-72
2021/09/16 08:34:29;;;;;;;16.35;13.13;;;;;;;15.09;93.35;99076.11;1731468;81;20987;-72
2021/09/16 08:36:56;;;;;;;14.80;13.30;;;;;;;15.24;93.54;99076.75;1735346;81;20980;-71
2021/09/16 08:39:24;;;;;;;13.13;11.83;;;;;;;15.35;93.22;99082.86;1735125;81;21564;-72
2021/09/16 08:41:51;;;;;;;13.10;11.43;;;;;;;15.44;93.27;99076.88;1738969;80;21646;-72
2021/09/16 08:44:19;;;;;;;13.72;12.30;;;;;;;15.56;93.14;99074.24;1726836;81;21723;-71
2021/09/16 08:46:46;;;;;;;;;;;;;;;15.67;93.21;99076.38;1718199;81;21055;-71
2021/09/16 08:49:17;;;;;;;14.35;12.95;;;;;;;15.78;93.04;99074.75;1737978;81;20238;-71
2021/09/16 08:51:44;;;;;;;13.30;11.85;;;;;;;15.84;92.92;99075.09;1735992;81;21013;-71
2021/09/16 08:54:11;;;;;;;11.73;10.50;;;;;;;15.88;92.74;99072.59;1737950;81;21625;-72
2021/09/16 08:56:41;;;;;;;11.78;10.60;;;;;;;15.95;92.86;99073.41;1738216;81;21010;-71
2021/09/16 08:59:11;;;;;;;12.50;11.25;;;;;;;15.98;92.64;99075.79;1714110;81;20975;-72
2021/09/16 09:01:39;;;;;;;13.85;12.55;;;;;;;16.00;92.53;99070.77;1739080;80;20968;-73
2021/09/16 09:04:06;;;;;;;;;;;;;;;15.99;92.48;99073.50;1740544;81;20945;-73
2021/09/16 09:06:38;;;;;;;14.78;11.15;;;;;;;15.99;92.55;99068.23;1734309;81;21196;-72
2021/09/16 09:09:18;;;;;;;12.20;11.00;;;;;;;15.95;92.40;99064.19;1737873;81;20998;-73
2021/09/16 09:11:52;;;;;;;13.18;11.97;;;;;;;15.93;92.44;99064.78;1730275;81;21027;-72
2021/09/16 09:14:23;;;;;;;12.50;11.28;;;;;;;15.92;92.46;99069.70;1737249;80;20979;-72
2021/09/16 09:16:52;;;;;;;12.93;11.60;;;;;;;15.95;92.69;99069.45;1730067;80;20996;-72
2021/09/16 09:19:22;;;;;;;41.08;32.60;;;;;;;15.99;92.73;99070.87;1720405;82;21813;-70
2021/09/16 09:21:49;;;;;;;16.00;14.33;;;;;;;16.04;92.83;99066.08;1710186;81;20984;-71
2021/09/16 09:24:30;;;;;;;;;;;;;;;16.10;92.76;99076.11;1738387;80;21023;-71
2021/09/16 09:26:59;;;;;;;13.35;12.05;;;;;;;16.11;92.79;99080.44;1730976;80;20158;-72
2021/09/16 09:29:28;;;;;;;11.12;10.13;;;;;;;16.19;92.99;99082.44;1715333;81;21082;-71
2021/09/16 09:32:09;;;;;;;11.75;10.55;;;;;;;16.24;92.89;99078.47;1734996;80;22120;-71
2021/09/16 09:34:40;;;;;;;10.28;9.28;;;;;;;16.31;92.91;99074.39;1735841;82;20912;-71
2021/09/16 09:37:17;;;;;;;9.53;8.63;;;;;;;16.36;92.62;99074.52;1733136;80;21053;-70
2021/09/16 09:39:49;;;;;;;9.98;8.98;;;;;;;16.41;92.74;99084.17;1736329;80;21688;-70
2021/09/16 09:42:26;;;;;;;9.20;8.30;;;;;;;16.51;92.74;99081.15;1730760;80;21050;-70
2021/09/16 09:45:10;;;;;;;10.88;9.88;;;;;;;16.55;92.47;99083.88;1733902;82;21466;-72
2021/09/16 09:47:41;;;;;;;11.12;10.03;;;;;;;16.55;92.37;99083.88;1729046;81;21005;-72
2021/09/16 09:50:27;;;;;;;10.58;9.58;;;;;;;16.61;92.56;99083.39;1730378;80;21088;-71
2021/09/16 09:53:33;;;;;;;;;;;;;;;;;;;;;
2021/09/16 09:55:54;;;;;;;11.20;10.10;;;;;;;16.78;92.66;99088.13;1668842;82;21053;-71
2021/09/16 09:58:44;;;;;;;9.18;8.28;;;;;;;16.91;92.55;99087.09;1665477;83;21406;-71
2021/09/16 10:02:01;;;;;;;;;;;;;;;;;;;;;
2021/09/16 10:04:26;;;;;;;;;;;;;;;17.23;92.77;99087.88;1572673;88;21109;-72
2021/09/16 10:06:55;;;;;;;9.53;7.47;;;;;;;17.45;92.53;99083.41;1585653;88;20235;-73
2021/09/16 10:09:22;;;;;;;7.67;6.97;;;;;;;17.54;92.33;99085.25;1584220;88;21179;-71
2021/09/16 10:11:52;;;;;;;7.45;6.75;;;;;;;17.68;92.24;99084.89;1582181;88;21982;-72
2021/09/16 10:14:20;;;;;;;9.20;6.95;;;;;;;17.78;92.17;99089.36;1589213;88;21152;-72
2021/09/16 10:16:49;;;;;;;7.00;6.30;;;;;;;17.91;91.97;99095.28;1582698;88;21154;-70
2021/09/16 10:19:17;;;;;;;7.15;6.45;;;;;;;17.93;91.64;99090.70;1568492;88;21618;-69
2021/09/16 10:21:46;;;;;;;12.35;6.83;;;;;;;18.02;91.94;99089.89;1592394;88;21116;-69
2021/09/16 10:24:16;;;;;;;9.18;6.70;;;;;;;18.20;91.99;99090.05;1593458;88;21182;-71
2021/09/16 10:26:52;;;;;;;7.20;6.50;;;;;;;18.20;91.15;99091.86;1585350;89;20987;-70
2021/09/16 10:29:33;;;;;;;7.00;6.30;;;;;;;18.25;91.76;99089.66;1588106;88;21074;-75
2021/09/16 10:32:11;;;;;;;7.60;6.67;;;;;;;18.30;91.25;99090.08;1583578;88;21205;-71
2021/09/16 10:34:56;;;;;;;8.23;7.40;;;;;;;18.28;91.20;99089.38;1593593;88;21132;-74
2021/09/16 10:37:22;;;;;;;8.33;7.53;;;;;;;18.33;91.52;99092.45;1603908;87;21085;-73
2021/09/16 10:39:55;;;;;;;7.78;6.97;;;;;;;18.29;90.90;99091.06;1592421;87;21596;-72
2021/09/16 10:42:44;;;;;;;8.20;7.40;;;;;;;18.31;91.26;99087.28;1675350;84;21069;-70
2021/09/16 10:45:12;;;;;;;8.20;7.37;;;;;;;18.37;91.14;99084.58;1693047;84;21025;-73
2021/09/16 10:47:39;;;;;;;9.23;6.70;;;;;;;18.38;90.93;99080.98;1715945;80;20991;-73
2021/09/16 10:50:20;;;;;;;;;;;;;;;18.39;90.99;99086.61;1739338;81;21298;-74
2021/09/16 10:52:47;;;;;;;6.35;5.75;;;;;;;18.54;91.23;99090.98;1734652;80;20160;-72
2021/09/16 10:55:14;;;;;;;;;;;;;;;18.69;91.27;99090.11;1739157;81;21018;-72
2021/09/16 10:57:42;;;;;;;6.33;5.72;;;;;;;18.83;91.21;99093.69;1720349;81;20150;-72
2021/09/16 11:00:20;;;;;;;9.05;5.90;;;;;;;18.89;90.88;99091.80;1740458;80;21002;-68
2021/09/16 11:02:52;;;;;;;6.20;5.60;;;;;;;19.00;91.17;99091.64;1737056;80;21082;-70
2021/09/16 11:05:21;;;;;;;8.83;6.50;;;;;;;19.22;91.25;99089.66;1733863;81;20970;-74
2021/09/16 11:07:59;;;;;;;19.32;8.78;;;;;;;19.35;90.85;99088.00;1735231;80;20955;-71
2021/09/16 11:10:31;;;;;;;9.15;6.80;;;;;;;19.41;90.42;99086.95;1711686;81;20983;-69
2021/09/16 11:13:05;;;;;;;10.98;6.97;;;;;;;19.44;90.23;99094.61;1711376;82;20998;-69
2021/09/16 11:15:38;;;;;;;44.10;9.18;;;;;;;19.49;90.44;99093.33;1655131;84;21208;-70
2021/09/16 11:18:14;;;;;;;108.92;17.42;;;;;;;19.56;90.30;99087.31;1653018;85;21001;-70
2021/09/16 11:20:48;;;;;;;70.87;13.83;;;;;;;19.54;89.85;99091.08;1661369;84;28774;-70
2021/09/16 11:23:16;;;;;;;14.73;7.47;;;;;;;19.53;89.79;99089.42;1688846;83;21137;-70
2021/09/16 11:25:47;;;;;;;104.60;27.75;;;;;;;19.59;89.98;99081.73;1688110;84;21078;-67
2021/09/16 11:28:15;;;;;;;45.08;17.98;;;;;;;19.62;89.76;99086.72;1687153;83;21087;-67
2021/09/16 11:30:46;;;;;;;174.50;32.65;;;;;;;19.63;89.52;99078.28;1687875;83;21070;-67
2021/09/16 11:33:20;;;;;;;61.10;18.57;;;;;;;19.58;89.27;99084.53;1688705;83;20967;-67
2021/09/16 11:35:48;;;;;;;70.45;20.15;;;;;;;19.64;89.41;99083.95;1688768;83;21523;-67